createdAt,value
2018-07-16T00:02:21.925Z,2.60
2018-07-16T00:04:50.061Z,3.20
2018-07-16T00:07:18.184Z,2.63
2018-07-16T00:09:46.306Z,2.67
2018-07-16T00:12:14.465Z,3.10
2018-07-16T00:14:42.690Z,3.60
2018-07-16T00:17:10.964Z,3.60
2018-07-16T00:19:39.076Z,3.07
2018-07-16T00:22:07.195Z,3.23
2018-07-16T00:24:35.329Z,2.87
2018-07-16T00:27:03.447Z,3.20
2018-07-16T00:29:31.604Z,3.30
2018-07-16T00:31:59.723Z,3.00
2018-07-16T00:34:27.868Z,3.27
2018-07-16T00:36:56.001Z,2.90
2018-07-16T00:39:24.163Z,2.97
2018-07-16T00:41:52.283Z,3.23
2018-07-16T00:44:20.433Z,2.53
2018-07-16T00:46:48.539Z,2.40
2018-07-16T00:49:16.669Z,3.27
2018-07-16T00:51:44.813Z,3.40
2018-07-16T00:54:12.960Z,2.70
2018-07-16T00:56:41.799Z,2.73
2018-07-16T00:59:10.688Z,3.13
2018-07-16T01:01:38.847Z,3.33
2018-07-16T01:04:06.979Z,3.03
2018-07-16T01:06:35.109Z,3.60
2018-07-16T01:09:03.959Z,3.17
2018-07-16T01:11:32.084Z,2.90
2018-07-16T01:14:00.199Z,3.00
2018-07-16T01:16:28.324Z,3.00
2018-07-16T01:18:56.444Z,3.10
2018-07-16T01:21:24.723Z,3.10
2018-07-16T01:23:52.858Z,3.47
2018-07-16T01:26:20.991Z,2.70
2018-07-16T01:28:49.128Z,3.57
2018-07-16T01:31:17.285Z,3.33
2018-07-16T01:33:45.414Z,3.30
2018-07-16T01:36:13.536Z,3.00
2018-07-16T01:38:41.731Z,3.10
2018-07-16T01:41:09.876Z,3.23
2018-07-16T01:43:37.988Z,3.07
2018-07-16T01:46:06.105Z,2.97
2018-07-16T01:48:34.222Z,3.30
2018-07-16T01:51:02.363Z,3.47
2018-07-16T01:53:30.479Z,4.20
2018-07-16T01:55:58.622Z,3.50
2018-07-16T01:58:26.743Z,3.27
2018-07-16T02:00:57.724Z,3.40
2018-07-16T02:03:26.937Z,3.57
2018-07-16T02:05:55.052Z,3.53
2018-07-16T02:08:23.998Z,3.60
2018-07-16T02:10:52.467Z,3.53
2018-07-16T02:13:20.700Z,3.33
2018-07-16T02:15:48.813Z,3.40
2018-07-16T02:18:16.935Z,3.70
2018-07-16T02:20:45.780Z,3.73
2018-07-16T02:23:13.937Z,3.13
2018-07-16T02:25:42.125Z,3.40
2018-07-16T02:28:11.020Z,3.60
2018-07-16T02:30:42.922Z,3.67
2018-07-16T02:33:11.871Z,3.63
2018-07-16T02:35:40.148Z,3.60
2018-07-16T02:38:08.336Z,3.53
2018-07-16T02:40:36.464Z,3.03
2018-07-16T02:43:04.589Z,3.40
2018-07-16T02:45:32.696Z,3.70
2018-07-16T02:48:00.857Z,3.30
2018-07-16T02:50:29.143Z,3.40
2018-07-16T02:52:57.262Z,3.63
2018-07-16T02:55:25.424Z,3.17
2018-07-16T02:57:53.615Z,3.83
2018-07-16T03:00:21.743Z,4.00
2018-07-16T03:02:49.877Z,3.20
2018-07-16T03:05:19.301Z,3.77
2018-07-16T03:07:48.381Z,3.93
2018-07-16T03:10:16.548Z,3.30
2018-07-16T03:12:45.136Z,3.57
2018-07-16T03:15:13.632Z,3.47
2018-07-16T03:17:41.749Z,3.43
2018-07-16T03:20:09.837Z,3.80
2018-07-16T03:22:37.943Z,3.70
2018-07-16T03:25:06.227Z,3.23
2018-07-16T03:27:34.323Z,4.17
2018-07-16T03:30:02.461Z,3.60
2018-07-16T03:32:30.559Z,3.67
2018-07-16T03:34:58.647Z,4.03
2018-07-16T03:37:26.753Z,3.87
2018-07-16T03:39:54.867Z,4.50
2018-07-16T03:42:22.969Z,3.60
2018-07-16T03:44:51.088Z,4.30
2018-07-16T03:47:19.204Z,4.13
2018-07-16T03:49:47.304Z,4.50
2018-07-16T03:52:15.404Z,4.27
2018-07-16T03:54:43.606Z,4.40
2018-07-16T03:57:11.676Z,3.80
2018-07-16T03:59:39.798Z,3.87
2018-07-16T04:02:07.916Z,4.10
2018-07-16T04:04:36.067Z,4.57
2018-07-16T04:07:04.163Z,4.00
2018-07-16T04:09:32.258Z,4.20
2018-07-16T04:12:00.336Z,4.60
2018-07-16T04:14:28.433Z,4.17
2018-07-16T04:16:56.636Z,4.33
2018-07-16T04:19:24.797Z,4.73
2018-07-16T04:21:52.915Z,4.20
2018-07-16T04:24:21.036Z,4.47
2018-07-16T04:26:49.155Z,4.90
2018-07-16T04:29:17.304Z,4.57
2018-07-16T04:31:45.423Z,4.50
2018-07-16T04:34:13.592Z,3.80
2018-07-16T04:36:41.732Z,4.70
2018-07-16T04:39:09.869Z,4.23
2018-07-16T04:41:38.014Z,4.10
2018-07-16T04:44:06.147Z,3.77
2018-07-16T04:46:34.277Z,4.60
2018-07-16T04:49:02.391Z,4.40
2018-07-16T04:51:30.541Z,3.97
2018-07-16T04:53:58.656Z,3.97
2018-07-16T04:56:26.796Z,3.83
2018-07-16T04:58:54.922Z,3.83
2018-07-16T05:01:23.072Z,4.70
2018-07-16T05:03:51.524Z,4.50
2018-07-16T05:06:20.317Z,4.53
2018-07-16T05:08:48.448Z,4.77
2018-07-16T05:11:16.589Z,4.90
2018-07-16T05:13:44.713Z,4.17
2018-07-16T05:16:12.888Z,5.17
2018-07-16T05:18:40.996Z,4.87
2018-07-16T05:21:09.136Z,5.00
2018-07-16T05:23:37.264Z,4.80
2018-07-16T05:26:05.379Z,4.53
2018-07-16T05:28:33.506Z,4.73
2018-07-16T05:31:01.639Z,4.37
2018-07-16T05:33:29.744Z,5.20
2018-07-16T05:35:57.879Z,4.10
2018-07-16T05:38:25.983Z,4.57
2018-07-16T05:40:54.118Z,4.03
2018-07-16T05:43:22.240Z,4.57
2018-07-16T05:45:50.379Z,3.57
2018-07-16T05:48:18.494Z,3.70
2018-07-16T05:50:46.660Z,3.73
2018-07-16T05:53:14.792Z,4.00
2018-07-16T05:55:42.911Z,4.13
2018-07-16T05:58:11.061Z,4.30
2018-07-16T06:00:39.222Z,3.72
2018-07-16T06:03:07.339Z,4.17
2018-07-16T06:05:35.487Z,3.80
2018-07-16T06:08:03.622Z,4.60
2018-07-16T06:10:31.740Z,3.17
2018-07-16T06:12:59.871Z,3.97
2018-07-16T06:15:28.029Z,3.43
2018-07-16T06:17:56.142Z,3.37
2018-07-16T06:20:24.254Z,3.47
2018-07-16T06:22:52.384Z,3.03
2018-07-16T06:25:20.509Z,3.40
2018-07-16T06:27:48.718Z,3.43
2018-07-16T06:30:16.838Z,2.90
2018-07-16T06:32:44.964Z,3.67
2018-07-16T06:35:13.084Z,2.77
2018-07-16T06:37:41.211Z,2.57
2018-07-16T06:40:09.465Z,3.10
2018-07-16T06:42:37.503Z,3.40
2018-07-16T06:45:05.632Z,3.40
2018-07-16T06:47:33.764Z,3.90
2018-07-16T06:50:01.873Z,2.93
2018-07-16T06:52:29.993Z,3.67
2018-07-16T06:54:58.109Z,3.40
2018-07-16T06:57:26.258Z,2.97
2018-07-16T06:59:54.393Z,2.90
2018-07-16T07:02:22.583Z,3.13
2018-07-16T07:04:50.640Z,2.73
2018-07-16T07:07:18.797Z,3.00
2018-07-16T07:09:46.928Z,2.93
2018-07-16T07:12:15.087Z,3.87
2018-07-16T07:14:43.184Z,2.87
2018-07-16T07:17:11.297Z,3.30
2018-07-16T07:19:39.382Z,2.50
2018-07-16T07:22:07.483Z,2.57
2018-07-16T07:24:35.555Z,2.47
2018-07-16T07:27:03.648Z,2.50
2018-07-16T07:29:31.791Z,2.20
2018-07-16T07:31:59.889Z,2.20
2018-07-16T07:34:27.980Z,2.50
2018-07-16T07:36:56.055Z,2.40
2018-07-16T07:39:24.141Z,2.47
2018-07-16T07:41:52.273Z,2.57
2018-07-16T07:44:20.403Z,2.00
2018-07-16T07:46:48.534Z,2.47
2018-07-16T07:49:16.633Z,2.43
2018-07-16T07:51:44.731Z,2.80
2018-07-16T07:54:12.893Z,2.00
2018-07-16T07:56:40.954Z,2.33
2018-07-16T07:59:09.060Z,1.87
2018-07-16T08:01:37.157Z,2.53
2018-07-16T08:04:05.239Z,2.17
2018-07-16T08:06:33.331Z,2.20
2018-07-16T08:09:01.465Z,2.20
2018-07-16T08:11:29.593Z,2.03
2018-07-16T08:13:57.723Z,2.20
2018-07-16T08:16:25.828Z,2.63
2018-07-16T08:18:53.948Z,2.37
2018-07-16T08:21:22.165Z,2.27
2018-07-16T08:23:50.259Z,2.07
2018-07-16T08:26:18.360Z,2.03
2018-07-16T08:28:46.535Z,2.70
2018-07-16T08:31:14.652Z,2.40
2018-07-16T08:33:42.785Z,2.00
2018-07-16T08:36:10.820Z,2.20
2018-07-16T08:38:38.942Z,2.60
2018-07-16T08:41:07.027Z,2.07
2018-07-16T08:43:35.187Z,1.97
2018-07-16T08:46:03.280Z,2.37
2018-07-16T08:48:31.996Z,2.10
2018-07-16T08:51:00.602Z,2.23
2018-07-16T08:53:29.381Z,1.93
2018-07-16T08:55:58.296Z,2.20
2018-07-16T08:58:27.192Z,2.03
2018-07-16T09:00:55.294Z,2.30
2018-07-16T09:03:23.377Z,2.63
2018-07-16T09:06:07.848Z,2.10
2018-07-16T09:08:36.603Z,1.90
2018-07-16T09:11:04.969Z,2.13
2018-07-16T09:13:33.238Z,2.10
2018-07-16T09:16:01.136Z,2.13
2018-07-16T09:18:29.511Z,2.33
2018-07-16T09:20:57.608Z,1.70
2018-07-16T09:23:25.701Z,2.23
2018-07-16T09:25:53.808Z,2.43
2018-07-16T09:28:21.928Z,2.50
2018-07-16T09:33:43.603Z,2.20
2018-07-16T09:36:12.845Z,1.90
2018-07-16T09:38:40.794Z,2.13
2018-07-16T09:41:08.902Z,2.13
2018-07-16T09:43:37.001Z,2.17
2018-07-16T09:46:05.115Z,2.80
2018-07-16T09:48:33.214Z,2.47
2018-07-16T09:51:01.318Z,2.03
2018-07-16T09:53:29.479Z,2.47
2018-07-16T09:55:57.623Z,2.60
2018-07-16T09:58:26.112Z,2.20
2018-07-16T10:00:59.856Z,2.57
2018-07-16T10:03:27.955Z,2.20
2018-07-16T10:05:56.118Z,2.30
2018-07-16T10:08:24.295Z,2.00
2018-07-16T10:10:52.456Z,2.37
2018-07-16T10:13:20.585Z,2.23
2018-07-16T10:15:48.678Z,2.47
2018-07-16T10:18:16.771Z,1.93
2018-07-16T10:20:48.616Z,2.17
2018-07-16T10:23:16.720Z,2.50
2018-07-16T10:25:44.905Z,2.30
2018-07-16T10:28:12.980Z,2.20
2018-07-16T10:30:41.075Z,2.80
2018-07-16T10:33:09.174Z,2.17
2018-07-16T10:35:37.299Z,2.67
2018-07-16T10:38:05.541Z,2.80
2018-07-16T10:40:33.633Z,2.30
2018-07-16T10:43:01.824Z,1.93
2018-07-16T10:45:29.963Z,2.77
2018-07-16T10:47:58.089Z,2.90
2018-07-16T10:50:26.246Z,2.80
2018-07-16T10:52:55.171Z,2.30
2018-07-16T10:55:23.355Z,2.83
2018-07-16T10:57:51.454Z,2.33
2018-07-16T11:00:19.628Z,2.80
2018-07-16T11:02:47.761Z,2.70
2018-07-16T11:05:15.915Z,1.93
2018-07-16T11:07:43.952Z,2.80
2018-07-16T11:10:12.051Z,2.73
2018-07-16T11:12:40.222Z,2.50
2018-07-16T11:15:08.415Z,2.50
2018-07-16T11:17:36.525Z,2.40
2018-07-16T11:20:04.704Z,2.30
2018-07-16T11:22:32.832Z,2.40
2018-07-16T11:25:00.992Z,2.40
2018-07-16T11:27:29.144Z,2.83
2018-07-16T11:29:57.606Z,2.40
2018-07-16T11:32:26.156Z,2.60
2018-07-16T11:34:54.508Z,2.83
2018-07-16T11:37:23.351Z,2.57
2018-07-16T11:39:51.636Z,2.47
2018-07-16T11:42:19.752Z,2.50
2018-07-16T11:44:47.656Z,2.50
2018-07-16T11:47:15.814Z,2.87
2018-07-16T11:49:43.936Z,2.40
2018-07-16T11:52:12.067Z,3.00
2018-07-16T11:54:40.188Z,2.97
2018-07-16T11:57:08.615Z,2.57
2018-07-16T11:59:36.741Z,2.23
2018-07-16T12:02:04.867Z,2.33
2018-07-16T12:04:32.983Z,2.40
2018-07-16T12:07:01.096Z,2.50
2018-07-16T12:09:29.237Z,2.50
2018-07-16T12:11:57.348Z,2.30
2018-07-16T12:14:25.501Z,2.60
2018-07-16T12:16:53.605Z,2.50
2018-07-16T12:19:21.802Z,2.20
2018-07-16T12:21:49.959Z,2.40
2018-07-16T12:24:18.107Z,2.53
2018-07-16T12:26:46.284Z,2.63
2018-07-16T12:29:14.416Z,2.40
2018-07-16T12:31:42.532Z,2.33
2018-07-16T12:34:10.650Z,2.20
2018-07-16T12:36:38.763Z,2.50
2018-07-16T12:39:07.452Z,3.07
2018-07-16T12:41:35.654Z,2.03
2018-07-16T12:44:03.747Z,2.40
2018-07-16T12:46:31.893Z,2.83
2018-07-16T12:49:00.025Z,2.50
2018-07-16T12:51:28.144Z,2.90
2018-07-16T12:53:56.307Z,2.77
2018-07-16T12:56:24.437Z,2.30
2018-07-16T12:58:52.543Z,2.60
2018-07-16T13:01:20.661Z,2.30
2018-07-16T13:03:48.788Z,2.40
2018-07-16T13:06:21.168Z,2.60
2018-07-16T13:08:49.297Z,2.70
2018-07-16T13:11:17.428Z,1.97
2018-07-16T13:13:45.572Z,2.23
2018-07-16T13:16:13.716Z,2.70
2018-07-16T13:18:42.139Z,2.70
2018-07-16T13:21:10.243Z,2.77
2018-07-16T13:23:38.331Z,2.53
2018-07-16T13:26:06.441Z,2.57
2018-07-16T13:28:34.859Z,2.77
2018-07-16T13:31:02.980Z,2.73
2018-07-16T13:33:31.068Z,2.10
2018-07-16T13:35:59.177Z,2.40
2018-07-16T13:38:27.252Z,2.43
2018-07-16T13:40:55.373Z,2.73
2018-07-16T13:43:23.559Z,2.70
2018-07-16T13:45:51.681Z,2.30
2018-07-16T13:48:19.753Z,2.20
2018-07-16T13:50:47.839Z,2.23
2018-07-16T13:53:15.911Z,3.10
2018-07-16T13:55:44.251Z,2.47
2018-07-16T13:58:12.337Z,2.40
2018-07-16T14:00:40.573Z,3.00
2018-07-16T14:03:08.661Z,2.47
2018-07-16T14:05:36.747Z,3.00
2018-07-16T14:08:04.941Z,2.50
2018-07-16T14:10:33.029Z,2.20
2018-07-16T14:13:01.137Z,2.60
2018-07-16T14:15:29.256Z,2.67
2018-07-16T14:17:57.348Z,2.30
2018-07-16T14:20:25.484Z,2.43
2018-07-16T14:22:53.592Z,2.93
2018-07-16T14:25:21.675Z,2.27
2018-07-16T14:27:49.775Z,2.50
2018-07-16T14:30:17.868Z,2.50
2018-07-16T14:32:46.040Z,2.20
2018-07-16T14:35:14.119Z,1.90
2018-07-16T14:37:42.216Z,2.00
2018-07-16T14:40:10.295Z,2.17
2018-07-16T14:42:38.387Z,2.20
2018-07-16T14:45:06.547Z,3.27
2018-07-16T14:47:34.672Z,2.30
2018-07-16T14:50:02.755Z,3.10
2018-07-16T14:52:30.853Z,2.30
2018-07-16T14:54:58.984Z,2.00
2018-07-16T14:57:27.090Z,2.33
2018-07-16T14:59:55.172Z,2.70
2018-07-16T15:02:23.272Z,2.40
2018-07-16T15:04:51.386Z,2.17
2018-07-16T15:07:19.503Z,2.20
2018-07-16T15:09:47.619Z,2.80
2018-07-16T15:12:15.712Z,2.60
2018-07-16T15:14:43.803Z,2.57
2018-07-16T15:17:11.888Z,2.53
2018-07-16T15:19:39.988Z,2.30
2018-07-16T15:22:08.097Z,2.60
2018-07-16T15:24:36.179Z,2.30
2018-07-16T15:27:04.344Z,2.43
2018-07-16T15:29:32.455Z,2.20
2018-07-16T15:32:00.543Z,2.53
2018-07-16T15:34:28.652Z,2.73
2018-07-16T15:36:56.745Z,2.80
2018-07-16T15:39:24.836Z,2.77
2018-07-16T15:41:52.944Z,3.33
2018-07-16T15:44:21.031Z,2.40
2018-07-16T15:46:49.144Z,2.23
2018-07-16T15:49:17.236Z,2.77
2018-07-16T15:51:45.331Z,2.73
2018-07-16T15:54:13.432Z,2.90
2018-07-16T15:56:41.527Z,2.53
2018-07-16T15:59:09.624Z,2.63
2018-07-16T16:01:37.728Z,2.00
2018-07-16T16:04:05.880Z,2.53
2018-07-16T16:06:33.960Z,2.40
2018-07-16T16:09:02.067Z,2.50
2018-07-16T16:11:30.171Z,2.73
2018-07-16T16:13:59.060Z,2.40
2018-07-16T16:16:27.302Z,2.90
2018-07-16T16:18:55.355Z,2.90
2018-07-16T16:21:23.559Z,2.77
2018-07-16T16:23:51.687Z,2.17
2018-07-16T16:26:19.870Z,2.33
2018-07-16T16:28:47.956Z,2.80
2018-07-16T16:31:16.068Z,2.40
2018-07-16T16:33:44.187Z,2.70
2018-07-16T16:36:12.308Z,2.40
2018-07-16T16:38:40.540Z,2.20
2018-07-16T16:41:08.800Z,2.43
2018-07-16T16:43:36.920Z,2.67
2018-07-16T16:46:05.043Z,3.03
2018-07-16T16:48:33.204Z,2.60
2018-07-16T16:51:01.327Z,8.63
2018-07-16T16:53:29.460Z,20.87
2018-07-16T16:55:57.565Z,2.70
2018-07-16T16:58:25.720Z,2.20
2018-07-16T17:00:53.817Z,2.40
2018-07-16T17:03:21.947Z,2.83
2018-07-16T17:05:50.111Z,2.80
2018-07-16T17:08:18.245Z,3.00
2018-07-16T17:10:46.379Z,2.60
2018-07-16T17:13:14.512Z,3.00
2018-07-16T17:15:42.627Z,4.53
2018-07-16T17:18:10.791Z,2.50
2018-07-16T17:20:38.883Z,3.13
2018-07-16T17:23:07.059Z,2.83
2018-07-16T17:25:35.128Z,2.77
2018-07-16T17:28:03.232Z,3.17
2018-07-16T17:30:31.350Z,3.27
2018-07-16T17:32:59.504Z,3.00
2018-07-16T17:35:27.616Z,2.87
2018-07-16T17:37:55.743Z,3.30
2018-07-16T17:40:23.935Z,2.80
2018-07-16T17:42:52.304Z,2.63
2018-07-16T17:45:20.431Z,2.80
2018-07-16T17:47:48.327Z,2.90
2018-07-16T17:50:16.469Z,2.40
2018-07-16T17:52:44.587Z,2.50
2018-07-16T17:55:12.707Z,2.70
2018-07-16T17:57:40.862Z,3.20
2018-07-16T18:00:08.979Z,2.30
2018-07-16T18:02:37.083Z,2.77
2018-07-16T18:05:05.188Z,2.20
2018-07-16T18:07:33.366Z,2.63
2018-07-16T18:10:01.449Z,2.90
2018-07-16T18:12:29.555Z,2.83
2018-07-16T18:14:57.688Z,3.10
2018-07-16T18:17:25.785Z,2.73
2018-07-16T18:19:53.893Z,2.90
2018-07-16T18:22:21.989Z,2.70
2018-07-16T18:24:50.078Z,2.80
2018-07-16T18:27:18.686Z,2.50
2018-07-16T18:29:46.879Z,2.60
2018-07-16T18:32:15.009Z,3.00
2018-07-16T18:34:43.128Z,2.90
2018-07-16T18:37:11.203Z,2.30
2018-07-16T18:39:39.287Z,2.50
2018-07-16T18:42:07.446Z,2.60
2018-07-16T18:44:35.534Z,3.70
2018-07-16T18:47:03.647Z,3.00
2018-07-16T18:49:31.734Z,2.70
2018-07-16T18:51:59.828Z,2.73
2018-07-16T18:54:27.979Z,2.70
2018-07-16T18:56:56.115Z,2.60
2018-07-16T18:59:24.304Z,3.03
2018-07-16T19:01:52.388Z,2.70
2018-07-16T19:04:20.517Z,3.20
2018-07-16T19:06:48.605Z,2.77
2018-07-16T19:09:16.753Z,3.13
2018-07-16T19:11:44.858Z,3.63
2018-07-16T19:14:12.970Z,3.77
2018-07-16T19:16:41.059Z,3.10
2018-07-16T19:19:09.187Z,3.27
2018-07-16T19:21:37.289Z,2.63
2018-07-16T19:24:05.379Z,2.77
2018-07-16T19:26:33.452Z,2.80
2018-07-16T19:29:01.549Z,2.70
2018-07-16T19:31:29.637Z,2.90
2018-07-16T19:33:57.754Z,3.27
2018-07-16T19:36:25.838Z,3.00
2018-07-16T19:38:53.928Z,3.50
2018-07-16T19:41:22.015Z,2.60
2018-07-16T19:43:50.101Z,3.40
2018-07-16T19:46:18.243Z,3.50
2018-07-16T19:48:46.323Z,4.57
2018-07-16T19:51:14.417Z,3.60
2018-07-16T19:53:42.523Z,3.93
2018-07-16T19:56:10.610Z,3.03
2018-07-16T19:58:38.687Z,3.80
2018-07-16T20:01:06.803Z,3.53
2018-07-16T20:03:34.910Z,3.20
2018-07-16T20:06:03.005Z,3.90
2018-07-16T20:08:31.113Z,3.60
2018-07-16T20:10:59.218Z,3.50
2018-07-16T20:13:27.316Z,3.57
2018-07-16T20:15:55.415Z,3.40
2018-07-16T20:18:23.508Z,3.90
2018-07-16T20:20:56.955Z,3.83
2018-07-16T20:23:24.999Z,3.87
2018-07-16T20:25:54.692Z,3.60
2018-07-16T20:28:22.802Z,3.73
2018-07-16T20:30:51.018Z,3.60
2018-07-16T20:33:19.126Z,4.20
2018-07-16T20:35:47.593Z,3.47
2018-07-16T20:38:15.730Z,3.80
2018-07-16T20:40:43.824Z,3.30
2018-07-16T20:43:11.918Z,3.23
2018-07-16T20:45:40.032Z,3.93
2018-07-16T20:48:08.099Z,3.93
2018-07-16T20:50:36.199Z,3.50
2018-07-16T20:53:04.291Z,4.23
2018-07-16T20:55:32.691Z,3.33
2018-07-16T20:58:00.767Z,3.40
2018-07-16T21:00:28.896Z,3.47
2018-07-16T21:02:57.065Z,3.50
2018-07-16T21:05:25.385Z,3.90
2018-07-16T21:07:53.545Z,3.27
2018-07-16T21:10:21.539Z,3.80
2018-07-16T21:12:49.632Z,4.30
2018-07-16T21:15:17.771Z,3.70
2018-07-16T21:17:45.880Z,3.40
2018-07-16T21:20:14.015Z,4.60
2018-07-16T21:22:42.135Z,4.97
2018-07-16T21:25:11.295Z,4.90
2018-07-16T21:27:39.455Z,5.03
2018-07-16T21:30:07.672Z,5.60
2018-07-16T21:32:35.837Z,4.80
2018-07-16T21:35:04.143Z,4.60
2018-07-16T21:37:32.277Z,5.50
2018-07-16T21:40:00.388Z,5.83
2018-07-16T21:42:28.680Z,5.60
2018-07-16T21:44:56.803Z,6.17
2018-07-16T21:47:24.962Z,5.13
2018-07-16T21:49:53.068Z,5.13
2018-07-16T21:52:20.962Z,5.27
2018-07-16T21:54:49.084Z,6.20
2018-07-16T21:57:17.199Z,5.13
2018-07-16T21:59:45.329Z,5.13
2018-07-16T22:02:13.468Z,5.67
2018-07-16T22:04:41.584Z,5.77
2018-07-16T22:07:09.816Z,4.83
2018-07-16T22:09:37.964Z,5.43
2018-07-16T22:12:06.095Z,4.40
2018-07-16T22:14:34.185Z,4.70
2018-07-16T22:17:02.304Z,6.47
2018-07-16T22:19:30.420Z,5.83
2018-07-16T22:21:58.554Z,4.87
2018-07-16T22:24:26.662Z,5.07
2018-07-16T22:26:54.784Z,5.00
2018-07-16T22:29:22.923Z,5.37
2018-07-16T22:31:51.040Z,4.73
2018-07-16T22:34:19.178Z,5.10
2018-07-16T22:36:47.284Z,5.30
2018-07-16T22:39:15.391Z,5.23
2018-07-16T22:41:43.508Z,5.37
2018-07-16T22:44:11.627Z,5.10
2018-07-16T22:46:39.740Z,5.40
2018-07-16T22:49:07.855Z,5.43
2018-07-16T22:51:36.003Z,5.53
2018-07-16T22:54:04.108Z,6.80
2018-07-16T22:56:32.222Z,6.60
2018-07-16T22:59:00.349Z,6.57
2018-07-16T23:01:28.519Z,5.43
2018-07-16T23:03:56.649Z,6.33
2018-07-16T23:06:24.763Z,7.00
2018-07-16T23:08:52.877Z,6.70
2018-07-16T23:11:21.035Z,6.03
2018-07-16T23:13:49.140Z,6.03
2018-07-16T23:16:17.251Z,5.90
2018-07-16T23:18:45.339Z,6.70
2018-07-16T23:21:13.428Z,6.57
2018-07-16T23:23:41.512Z,6.07
2018-07-16T23:26:09.612Z,6.10
2018-07-16T23:28:37.731Z,5.17
2018-07-16T23:31:05.799Z,7.23
2018-07-16T23:33:33.907Z,5.40
2018-07-16T23:36:02.004Z,6.90
2018-07-16T23:38:30.100Z,7.07
2018-07-16T23:40:58.199Z,6.20
2018-07-16T23:43:26.304Z,6.37
2018-07-16T23:45:54.385Z,6.80
2018-07-16T23:48:22.468Z,5.97
2018-07-16T23:50:50.629Z,6.90
2018-07-16T23:53:18.721Z,6.40
2018-07-16T23:55:46.839Z,7.20
2018-07-16T23:58:14.923Z,7.63
